KLM425 GVAC-GOBD
Flight info
| Callsign | KLM425 |
|---|---|
| Flight time | 1h 1m |
| Altitude | 37000 |
| Route | IRPOT1A POLMO DCT LUMPO DCT LIGOV LIGOV1A |
| Aircraft | B738/M-SDE2E3FGHIRWXY/LB1 |
Departure
| Time | 2026-04-25 16:55 |
|---|---|
| Airport | Amílcar Cabral International Airport (GVAC) |
Arrival
| Time | 2026-04-25 17:57 |
|---|---|
| Airport | Blaise Diagne International Airport (GOBD) |
| Time | Latitude | Longitude | Altitude | Speed | Heading |
|---|---|---|---|---|---|
| 2026-04-25 16:16 | 16.73300 | -22.94496 | 227 ft | 0 kts | 90° |
| 2026-04-25 16:46 | 16.73300 | -22.94509 | 204 ft | 4 kts | 91° |
| 2026-04-25 16:47 | 16.73303 | -22.94546 | 205 ft | 4 kts | 99° |
| 2026-04-25 16:47 | 16.73309 | -22.94573 | 210 ft | 4 kts | 114° |
| 2026-04-25 16:47 | 16.73323 | -22.94593 | 203 ft | 4 kts | 164° |
| 2026-04-25 16:47 | 16.73329 | -22.94595 | 213 ft | 1 kts | 179° |
| 2026-04-25 16:50 | 16.73328 | -22.94595 | 213 ft | 1 kts | 179° |
| 2026-04-25 16:50 | 16.73313 | -22.94595 | 213 ft | 4 kts | 178° |
| 2026-04-25 16:51 | 16.73276 | -22.94593 | 204 ft | 7 kts | 177° |
| 2026-04-25 16:51 | 16.73224 | -22.94593 | 199 ft | 8 kts | 184° |
| 2026-04-25 16:51 | 16.73170 | -22.94594 | 203 ft | 8 kts | 180° |
| 2026-04-25 16:51 | 16.73134 | -22.94593 | 204 ft | 8 kts | 180° |
| 2026-04-25 16:52 | 16.73072 | -22.94626 | 205 ft | 9 kts | 233° |
| 2026-04-25 16:52 | 16.73032 | -22.94683 | 199 ft | 11 kts | 213° |
| 2026-04-25 16:52 | 16.72947 | -22.94691 | 192 ft | 17 kts | 180° |
| 2026-04-25 16:52 | 16.72817 | -22.94690 | 188 ft | 19 kts | 180° |
| 2026-04-25 16:53 | 16.72563 | -22.94688 | 183 ft | 16 kts | 180° |
| 2026-04-25 16:53 | 16.72459 | -22.94688 | 182 ft | 12 kts | 181° |
| 2026-04-25 16:53 | 16.72408 | -22.94738 | 183 ft | 10 kts | 264° |
| 2026-04-25 16:54 | 16.72407 | -22.94780 | 183 ft | 3 kts | 269° |
| 2026-04-25 16:54 | 16.72406 | -22.94813 | 187 ft | 7 kts | 269° |
| 2026-04-25 16:54 | 16.72420 | -22.94878 | 193 ft | 10 kts | 326° |
| 2026-04-25 16:54 | 16.72523 | -22.94887 | 186 ft | 35 kts | 359° |
| 2026-04-25 16:55 | 16.73011 | -22.94889 | 191 ft | 102 kts | 359° |
| 2026-04-25 16:55 | 16.73903 | -22.94898 | 221 ft | 152 kts | 2° |
| 2026-04-25 16:55 | 16.74972 | -22.94932 | 859 ft | 151 kts | 1° |
| 2026-04-25 16:55 | 16.76054 | -22.94938 | 1544 ft | 155 kts | 2° |
| 2026-04-25 16:56 | 16.77140 | -22.94953 | 2296 ft | 163 kts | 1° |
| 2026-04-25 16:56 | 16.78385 | -22.94978 | 2616 ft | 193 kts | 1° |
| 2026-04-25 16:56 | 16.79817 | -22.95012 | 2809 ft | 219 kts | 359° |
| 2026-04-25 16:56 | 16.81366 | -22.95053 | 3164 ft | 236 kts | 359° |
| 2026-04-25 16:57 | 16.83099 | -22.95051 | 3630 ft | 253 kts | 7° |
| 2026-04-25 16:57 | 16.84203 | -22.94639 | 4118 ft | 260 kts | 29° |
| 2026-04-25 16:57 | 16.85818 | -22.92669 | 4927 ft | 283 kts | 65° |
| 2026-04-25 16:57 | 16.86221 | -22.90632 | 5572 ft | 294 kts | 89° |
| 2026-04-25 16:58 | 16.85891 | -22.88509 | 6273 ft | 300 kts | 107° |
| 2026-04-25 16:58 | 16.85162 | -22.86456 | 6987 ft | 302 kts | 114° |
| 2026-04-25 16:58 | 16.84325 | -22.84438 | 7731 ft | 304 kts | 115° |
| 2026-04-25 16:58 | 16.83461 | -22.82413 | 8478 ft | 306 kts | 116° |
| 2026-04-25 16:59 | 16.82595 | -22.80372 | 9209 ft | 309 kts | 116° |
| 2026-04-25 16:59 | 16.81729 | -22.78306 | 9929 ft | 312 kts | 116° |
| 2026-04-25 16:59 | 16.80852 | -22.76187 | 10335 ft | 327 kts | 115° |
| 2026-04-25 16:59 | 16.79922 | -22.73924 | 10505 ft | 350 kts | 115° |
| 2026-04-25 17:00 | 16.78946 | -22.71524 | 10748 ft | 367 kts | 115° |
| 2026-04-25 17:00 | 16.77959 | -22.69079 | 11274 ft | 372 kts | 114° |
| 2026-04-25 17:00 | 16.76956 | -22.66582 | 11939 ft | 374 kts | 114° |
| 2026-04-25 17:00 | 16.75945 | -22.64060 | 12579 ft | 378 kts | 114° |
| 2026-04-25 17:01 | 16.74924 | -22.61511 | 13225 ft | 382 kts | 113° |
| 2026-04-25 17:01 | 16.73896 | -22.58944 | 13880 ft | 385 kts | 113° |
| 2026-04-25 17:01 | 16.72856 | -22.56349 | 14445 ft | 389 kts | 113° |
| 2026-04-25 17:01 | 16.71808 | -22.53733 | 15024 ft | 393 kts | 114° |
| 2026-04-25 17:02 | 16.70754 | -22.51104 | 15664 ft | 394 kts | 114° |
| 2026-04-25 17:02 | 16.69687 | -22.48445 | 16254 ft | 398 kts | 114° |
| 2026-04-25 17:02 | 16.68626 | -22.45803 | 16821 ft | 402 kts | 114° |
| 2026-04-25 17:02 | 16.67895 | -22.43982 | 17197 ft | 404 kts | 114° |
| 2026-04-25 17:03 | 16.66446 | -22.40377 | 17942 ft | 409 kts | 114° |
| 2026-04-25 17:03 | 16.65340 | -22.37627 | 18444 ft | 413 kts | 114° |
| 2026-04-25 17:03 | 16.64225 | -22.34853 | 18901 ft | 417 kts | 114° |
| 2026-04-25 17:03 | 16.63096 | -22.32046 | 19346 ft | 421 kts | 114° |
| 2026-04-25 17:04 | 16.61955 | -22.29212 | 19804 ft | 424 kts | 114° |
| 2026-04-25 17:04 | 16.60810 | -22.26369 | 20249 ft | 428 kts | 114° |
| 2026-04-25 17:04 | 16.59654 | -22.23497 | 20690 ft | 431 kts | 113° |
| 2026-04-25 17:04 | 16.58487 | -22.20601 | 21119 ft | 435 kts | 113° |
| 2026-04-25 17:05 | 16.57312 | -22.17686 | 21547 ft | 438 kts | 113° |
| 2026-04-25 17:05 | 16.54905 | -22.11785 | 22381 ft | 445 kts | 113° |
| 2026-04-25 17:05 | 16.53679 | -22.08854 | 22781 ft | 449 kts | 113° |
| 2026-04-25 17:06 | 16.52431 | -22.05859 | 23178 ft | 452 kts | 113° |
| 2026-04-25 17:06 | 16.51185 | -22.02843 | 23590 ft | 454 kts | 112° |
| 2026-04-25 17:06 | 16.49946 | -21.99812 | 23938 ft | 456 kts | 112° |
| 2026-04-25 17:06 | 16.48705 | -21.96753 | 24242 ft | 459 kts | 112° |
| 2026-04-25 17:07 | 16.47460 | -21.93676 | 24532 ft | 463 kts | 112° |
| 2026-04-25 17:07 | 16.46204 | -21.90571 | 24838 ft | 466 kts | 112° |
| 2026-04-25 17:07 | 16.44943 | -21.87452 | 25151 ft | 469 kts | 112° |
| 2026-04-25 17:07 | 16.43674 | -21.84314 | 25457 ft | 472 kts | 112° |
| 2026-04-25 17:08 | 16.42395 | -21.81154 | 25757 ft | 475 kts | 112° |
| 2026-04-25 17:08 | 16.41108 | -21.77974 | 26037 ft | 477 kts | 112° |
| 2026-04-25 17:08 | 16.39812 | -21.74775 | 26320 ft | 480 kts | 112° |
| 2026-04-25 17:08 | 16.38510 | -21.71563 | 26604 ft | 483 kts | 112° |
| 2026-04-25 17:09 | 16.37196 | -21.68325 | 26889 ft | 486 kts | 112° |
| 2026-04-25 17:09 | 16.35877 | -21.65073 | 27166 ft | 489 kts | 112° |
| 2026-04-25 17:09 | 16.34551 | -21.61809 | 27442 ft | 491 kts | 111° |
| 2026-04-25 17:09 | 16.33215 | -21.58522 | 27703 ft | 494 kts | 111° |
| 2026-04-25 17:10 | 16.31872 | -21.55217 | 27958 ft | 497 kts | 111° |
| 2026-04-25 17:10 | 16.30522 | -21.51898 | 28211 ft | 499 kts | 111° |
| 2026-04-25 17:10 | 16.29181 | -21.48603 | 28464 ft | 502 kts | 111° |
| 2026-04-25 17:10 | 16.27815 | -21.45248 | 28724 ft | 504 kts | 111° |
| 2026-04-25 17:11 | 16.26445 | -21.41882 | 28982 ft | 506 kts | 111° |
| 2026-04-25 17:11 | 16.25066 | -21.38500 | 29273 ft | 507 kts | 111° |
| 2026-04-25 17:11 | 16.23686 | -21.35116 | 29554 ft | 508 kts | 111° |
| 2026-04-25 17:11 | 16.22300 | -21.31719 | 29757 ft | 511 kts | 111° |
| 2026-04-25 17:12 | 16.20907 | -21.28306 | 29949 ft | 514 kts | 111° |
| 2026-04-25 17:12 | 16.19506 | -21.24875 | 30141 ft | 516 kts | 111° |
| 2026-04-25 17:12 | 16.18101 | -21.21438 | 30365 ft | 517 kts | 111° |
| 2026-04-25 17:12 | 16.16671 | -21.17941 | 30596 ft | 518 kts | 112° |
| 2026-04-25 17:13 | 16.15280 | -21.14544 | 30813 ft | 519 kts | 112° |
| 2026-04-25 17:13 | 16.14821 | -21.13422 | 30899 ft | 519 kts | 112° |
| 2026-04-25 17:13 | 16.12474 | -21.07687 | 31388 ft | 517 kts | 112° |
| 2026-04-25 17:13 | 16.11067 | -21.04252 | 31702 ft | 516 kts | 112° |
| 2026-04-25 17:14 | 16.09659 | -21.00821 | 32009 ft | 515 kts | 112° |
| 2026-04-25 17:14 | 16.08254 | -20.97397 | 32295 ft | 514 kts | 113° |
| 2026-04-25 17:14 | 16.06849 | -20.93974 | 32599 ft | 514 kts | 113° |
| 2026-04-25 17:14 | 16.05449 | -20.90565 | 32918 ft | 513 kts | 113° |
| 2026-04-25 17:15 | 16.04049 | -20.87157 | 33227 ft | 512 kts | 113° |
| 2026-04-25 17:15 | 16.02651 | -20.83755 | 33535 ft | 511 kts | 113° |
| 2026-04-25 17:15 | 16.01252 | -20.80352 | 33850 ft | 510 kts | 113° |
| 2026-04-25 17:15 | 15.99858 | -20.76964 | 34112 ft | 509 kts | 113° |
| 2026-04-25 17:16 | 15.98485 | -20.73629 | 34451 ft | 506 kts | 114° |
| 2026-04-25 17:16 | 15.97101 | -20.70269 | 34805 ft | 503 kts | 114° |
| 2026-04-25 17:16 | 15.95726 | -20.66932 | 35081 ft | 502 kts | 114° |
| 2026-04-25 17:16 | 15.94350 | -20.63594 | 35316 ft | 502 kts | 114° |
| 2026-04-25 17:17 | 15.92972 | -20.60255 | 35540 ft | 502 kts | 114° |
| 2026-04-25 17:17 | 15.91597 | -20.56923 | 35798 ft | 501 kts | 114° |
| 2026-04-25 17:17 | 15.90224 | -20.53598 | 36081 ft | 499 kts | 114° |
| 2026-04-25 17:17 | 15.88872 | -20.50324 | 36372 ft | 498 kts | 114° |
| 2026-04-25 17:18 | 15.87492 | -20.46986 | 36646 ft | 496 kts | 114° |
| 2026-04-25 17:18 | 15.86144 | -20.43725 | 36845 ft | 497 kts | 115° |
| 2026-04-25 17:18 | 15.83394 | -20.37083 | 36900 ft | 501 kts | 115° |
| 2026-04-25 17:19 | 15.80657 | -20.30475 | 36896 ft | 496 kts | 115° |
| 2026-04-25 17:19 | 15.77937 | -20.23915 | 36896 ft | 493 kts | 115° |
| 2026-04-25 17:20 | 15.75229 | -20.17391 | 36898 ft | 491 kts | 115° |
| 2026-04-25 17:20 | 15.72542 | -20.10923 | 36897 ft | 490 kts | 114° |
| 2026-04-25 17:21 | 15.69845 | -20.04435 | 36898 ft | 490 kts | 114° |
| 2026-04-25 17:21 | 15.67187 | -19.97915 | 36894 ft | 491 kts | 112° |
| 2026-04-25 17:22 | 15.65590 | -19.93516 | 36896 ft | 492 kts | 111° |
| 2026-04-25 17:22 | 15.62477 | -19.84566 | 36895 ft | 493 kts | 111° |
| 2026-04-25 17:23 | 15.60114 | -19.77871 | 36893 ft | 495 kts | 111° |
| 2026-04-25 17:23 | 15.57738 | -19.71212 | 36891 ft | 496 kts | 111° |
| 2026-04-25 17:24 | 15.55330 | -19.64486 | 36888 ft | 497 kts | 111° |
| 2026-04-25 17:24 | 15.52921 | -19.57756 | 36888 ft | 498 kts | 111° |
| 2026-04-25 17:25 | 15.51717 | -19.54388 | 36748 ft | 499 kts | 111° |
| 2026-04-25 17:25 | 15.50511 | -19.51020 | 36561 ft | 497 kts | 111° |
| 2026-04-25 17:25 | 15.49308 | -19.47668 | 36391 ft | 495 kts | 111° |
| 2026-04-25 17:25 | 15.48104 | -19.44314 | 36235 ft | 497 kts | 111° |
| 2026-04-25 17:26 | 15.46895 | -19.40946 | 36063 ft | 498 kts | 111° |
| 2026-04-25 17:26 | 15.45595 | -19.37657 | 35890 ft | 499 kts | 115° |
| 2026-04-25 17:26 | 15.44091 | -19.34416 | 35728 ft | 499 kts | 117° |
| 2026-04-25 17:26 | 15.42498 | -19.31214 | 35530 ft | 500 kts | 118° |
| 2026-04-25 17:27 | 15.40875 | -19.28019 | 35317 ft | 502 kts | 118° |
| 2026-04-25 17:27 | 15.39255 | -19.24814 | 35110 ft | 502 kts | 118° |
| 2026-04-25 17:27 | 15.37649 | -19.21591 | 34901 ft | 503 kts | 117° |
| 2026-04-25 17:27 | 15.37113 | -19.20506 | 34832 ft | 503 kts | 117° |
| 2026-04-25 17:28 | 15.34489 | -19.15127 | 34493 ft | 503 kts | 117° |
| 2026-04-25 17:28 | 15.32919 | -19.11882 | 34289 ft | 503 kts | 116° |
| 2026-04-25 17:28 | 15.31358 | -19.08648 | 33570 ft | 500 kts | 116° |
| 2026-04-25 17:28 | 15.29808 | -19.05436 | 32768 ft | 497 kts | 116° |
| 2026-04-25 17:29 | 15.28261 | -19.02232 | 32198 ft | 495 kts | 116° |
| 2026-04-25 17:29 | 15.26727 | -18.99060 | 31697 ft | 491 kts | 116° |
| 2026-04-25 17:29 | 15.25201 | -18.95908 | 31209 ft | 488 kts | 116° |
| 2026-04-25 17:29 | 15.23702 | -18.92813 | 30740 ft | 485 kts | 116° |
| 2026-04-25 17:30 | 15.22192 | -18.89699 | 30254 ft | 482 kts | 115° |
| 2026-04-25 17:30 | 15.20688 | -18.86599 | 29744 ft | 480 kts | 115° |
| 2026-04-25 17:30 | 15.19192 | -18.83517 | 29213 ft | 476 kts | 115° |
| 2026-04-25 17:30 | 15.17712 | -18.80469 | 28697 ft | 471 kts | 116° |
| 2026-04-25 17:31 | 15.16248 | -18.77454 | 28219 ft | 467 kts | 116° |
| 2026-04-25 17:31 | 15.14798 | -18.74470 | 27739 ft | 462 kts | 116° |
| 2026-04-25 17:31 | 15.13360 | -18.71511 | 27268 ft | 458 kts | 116° |
| 2026-04-25 17:31 | 15.11932 | -18.68574 | 26801 ft | 453 kts | 116° |
| 2026-04-25 17:32 | 15.10520 | -18.65673 | 26339 ft | 449 kts | 116° |
| 2026-04-25 17:32 | 15.09121 | -18.62797 | 25876 ft | 446 kts | 116° |
| 2026-04-25 17:32 | 15.07733 | -18.59946 | 25432 ft | 442 kts | 116° |
| 2026-04-25 17:32 | 15.06361 | -18.57129 | 24957 ft | 433 kts | 116° |
| 2026-04-25 17:33 | 15.05029 | -18.54395 | 24512 ft | 430 kts | 116° |
| 2026-04-25 17:33 | 15.03686 | -18.51641 | 24056 ft | 428 kts | 116° |
| 2026-04-25 17:33 | 15.02345 | -18.48888 | 23600 ft | 425 kts | 116° |
| 2026-04-25 17:33 | 15.01023 | -18.46179 | 23090 ft | 417 kts | 116° |
| 2026-04-25 17:34 | 14.99726 | -18.43520 | 22619 ft | 411 kts | 116° |
| 2026-04-25 17:34 | 14.98877 | -18.41779 | 22309 ft | 409 kts | 117° |
| 2026-04-25 17:34 | 14.97604 | -18.39167 | 21882 ft | 406 kts | 117° |
| 2026-04-25 17:34 | 14.96334 | -18.36568 | 21445 ft | 403 kts | 117° |
| 2026-04-25 17:35 | 14.95075 | -18.33990 | 21017 ft | 400 kts | 117° |
| 2026-04-25 17:35 | 14.93822 | -18.31427 | 20590 ft | 397 kts | 117° |
| 2026-04-25 17:35 | 14.92578 | -18.28883 | 20167 ft | 395 kts | 117° |
| 2026-04-25 17:35 | 14.91340 | -18.26352 | 19748 ft | 393 kts | 118° |
| 2026-04-25 17:36 | 14.90108 | -18.23835 | 19305 ft | 392 kts | 118° |
| 2026-04-25 17:36 | 14.88882 | -18.21329 | 18878 ft | 390 kts | 118° |
| 2026-04-25 17:36 | 14.87659 | -18.18831 | 18462 ft | 389 kts | 118° |
| 2026-04-25 17:36 | 14.86440 | -18.16342 | 18002 ft | 388 kts | 118° |
| 2026-04-25 17:37 | 14.85224 | -18.13860 | 17549 ft | 385 kts | 118° |
| 2026-04-25 17:37 | 14.84033 | -18.11429 | 17124 ft | 382 kts | 118° |
| 2026-04-25 17:37 | 14.82835 | -18.08985 | 16711 ft | 379 kts | 118° |
| 2026-04-25 17:37 | 14.81645 | -18.06558 | 16292 ft | 376 kts | 118° |
| 2026-04-25 17:38 | 14.80467 | -18.04156 | 15886 ft | 374 kts | 118° |
| 2026-04-25 17:38 | 14.79675 | -18.02541 | 15623 ft | 372 kts | 118° |
| 2026-04-25 17:38 | 14.78132 | -17.99397 | 15084 ft | 368 kts | 119° |
| 2026-04-25 17:38 | 14.76977 | -17.97045 | 14687 ft | 365 kts | 119° |
| 2026-04-25 17:39 | 14.75831 | -17.94712 | 14286 ft | 363 kts | 119° |
| 2026-04-25 17:39 | 14.74690 | -17.92390 | 13900 ft | 360 kts | 119° |
| 2026-04-25 17:39 | 14.73559 | -17.90087 | 13485 ft | 358 kts | 119° |
| 2026-04-25 17:39 | 14.72436 | -17.87803 | 13039 ft | 352 kts | 119° |
| 2026-04-25 17:40 | 14.71356 | -17.85605 | 12643 ft | 343 kts | 120° |
| 2026-04-25 17:40 | 14.70279 | -17.83414 | 12273 ft | 341 kts | 119° |
| 2026-04-25 17:40 | 14.69210 | -17.81242 | 11897 ft | 338 kts | 119° |
| 2026-04-25 17:40 | 14.68147 | -17.79081 | 11521 ft | 336 kts | 120° |
| 2026-04-25 17:41 | 14.67088 | -17.76930 | 11148 ft | 334 kts | 120° |
| 2026-04-25 17:41 | 14.66034 | -17.74793 | 10782 ft | 332 kts | 119° |
| 2026-04-25 17:41 | 14.64990 | -17.72672 | 10417 ft | 330 kts | 118° |
| 2026-04-25 17:41 | 14.63979 | -17.70621 | 10289 ft | 320 kts | 119° |
| 2026-04-25 17:42 | 14.62984 | -17.68601 | 10146 ft | 311 kts | 119° |
| 2026-04-25 17:42 | 14.62018 | -17.66640 | 10012 ft | 302 kts | 120° |
| 2026-04-25 17:42 | 14.61078 | -17.64731 | 9884 ft | 294 kts | 120° |
| 2026-04-25 17:42 | 14.60159 | -17.62869 | 9651 ft | 291 kts | 120° |
| 2026-04-25 17:43 | 14.59240 | -17.61010 | 9363 ft | 288 kts | 118° |
| 2026-04-25 17:43 | 14.58334 | -17.59177 | 9082 ft | 286 kts | 118° |
| 2026-04-25 17:43 | 14.57435 | -17.57356 | 8806 ft | 284 kts | 118° |
| 2026-04-25 17:43 | 14.56541 | -17.55547 | 8532 ft | 282 kts | 118° |
| 2026-04-25 17:44 | 14.55652 | -17.53747 | 8257 ft | 280 kts | 117° |
| 2026-04-25 17:44 | 14.54767 | -17.51955 | 7989 ft | 279 kts | 117° |
| 2026-04-25 17:44 | 14.53898 | -17.50197 | 7717 ft | 278 kts | 117° |
| 2026-04-25 17:44 | 14.53022 | -17.48424 | 7446 ft | 277 kts | 116° |
| 2026-04-25 17:45 | 14.52148 | -17.46655 | 7171 ft | 276 kts | 116° |
| 2026-04-25 17:45 | 14.51577 | -17.45454 | 7000 ft | 276 kts | 112° |
| 2026-04-25 17:45 | 14.50652 | -17.42987 | 6696 ft | 281 kts | 108° |
| 2026-04-25 17:45 | 14.49988 | -17.41072 | 6484 ft | 284 kts | 107° |
| 2026-04-25 17:46 | 14.49321 | -17.39149 | 6256 ft | 284 kts | 108° |
| 2026-04-25 17:46 | 14.48650 | -17.37242 | 6002 ft | 282 kts | 108° |
| 2026-04-25 17:46 | 14.47977 | -17.35352 | 5768 ft | 279 kts | 107° |
| 2026-04-25 17:46 | 14.47305 | -17.33471 | 5520 ft | 278 kts | 107° |
| 2026-04-25 17:47 | 14.46632 | -17.31599 | 5276 ft | 276 kts | 108° |
| 2026-04-25 17:47 | 14.45967 | -17.29756 | 5040 ft | 271 kts | 108° |
| 2026-04-25 17:47 | 14.45316 | -17.27959 | 4792 ft | 265 kts | 107° |
| 2026-04-25 17:47 | 14.44674 | -17.26185 | 4552 ft | 263 kts | 107° |
| 2026-04-25 17:48 | 14.43420 | -17.22726 | 4070 ft | 254 kts | 107° |
| 2026-04-25 17:48 | 14.42806 | -17.21031 | 3831 ft | 251 kts | 108° |
| 2026-04-25 17:48 | 14.42198 | -17.19354 | 3621 ft | 247 kts | 108° |
| 2026-04-25 17:49 | 14.41603 | -17.17716 | 3390 ft | 241 kts | 107° |
| 2026-04-25 17:49 | 14.41022 | -17.16115 | 3138 ft | 236 kts | 107° |
| 2026-04-25 17:49 | 14.40453 | -17.14551 | 2915 ft | 229 kts | 107° |
| 2026-04-25 17:49 | 14.39914 | -17.13075 | 2929 ft | 211 kts | 106° |
| 2026-04-25 17:50 | 14.39404 | -17.11675 | 2966 ft | 206 kts | 107° |
| 2026-04-25 17:50 | 14.38910 | -17.10316 | 2988 ft | 199 kts | 105° |
| 2026-04-25 17:50 | 14.38795 | -17.08968 | 2984 ft | 187 kts | 71° |
| 2026-04-25 17:50 | 14.39422 | -17.07820 | 2996 ft | 193 kts | 37° |
| 2026-04-25 17:51 | 14.40776 | -17.07307 | 3016 ft | 224 kts | 6° |
| 2026-04-25 17:51 | 14.42373 | -17.07157 | 2979 ft | 232 kts | 4° |
| 2026-04-25 17:51 | 14.43977 | -17.07083 | 2984 ft | 229 kts | 1° |
| 2026-04-25 17:51 | 14.45544 | -17.07077 | 2986 ft | 222 kts | 359° |
| 2026-04-25 17:52 | 14.47064 | -17.07091 | 2984 ft | 217 kts | 359° |
| 2026-04-25 17:52 | 14.48055 | -17.07101 | 2998 ft | 212 kts | 359° |
| 2026-04-25 17:52 | 14.49975 | -17.07120 | 2990 ft | 199 kts | 360° |
| 2026-04-25 17:52 | 14.51299 | -17.07134 | 2905 ft | 182 kts | 0° |
| 2026-04-25 17:53 | 14.52521 | -17.07145 | 2704 ft | 170 kts | 359° |
| 2026-04-25 17:53 | 14.53659 | -17.07156 | 2484 ft | 161 kts | 0° |
| 2026-04-25 17:53 | 14.54728 | -17.07167 | 2317 ft | 149 kts | 1° |
| 2026-04-25 17:53 | 14.55743 | -17.07176 | 2168 ft | 141 kts | 1° |
| 2026-04-25 17:54 | 14.56712 | -17.07185 | 1954 ft | 134 kts | 2° |
| 2026-04-25 17:54 | 14.57644 | -17.07189 | 1757 ft | 135 kts | 2° |
| 2026-04-25 17:54 | 14.58602 | -17.07226 | 1657 ft | 140 kts | 359° |
| 2026-04-25 17:54 | 14.59592 | -17.07250 | 1469 ft | 141 kts | 0° |
| 2026-04-25 17:55 | 14.60553 | -17.07252 | 1226 ft | 135 kts | 4° |
| 2026-04-25 17:55 | 14.61478 | -17.07230 | 1071 ft | 133 kts | 0° |
| 2026-04-25 17:55 | 14.62403 | -17.07231 | 895 ft | 135 kts | 359° |
| 2026-04-25 17:55 | 14.63337 | -17.07258 | 777 ft | 136 kts | 0° |
| 2026-04-25 17:56 | 14.64297 | -17.07255 | 578 ft | 139 kts | 360° |
| 2026-04-25 17:56 | 14.65260 | -17.07266 | 381 ft | 137 kts | 358° |
| 2026-04-25 17:56 | 14.66178 | -17.07271 | 294 ft | 122 kts | 358° |
| 2026-04-25 17:56 | 14.66925 | -17.07280 | 298 ft | 87 kts | 359° |
| 2026-04-25 17:57 | 14.67349 | -17.07284 | 292 ft | 45 kts | 359° |
| 2026-04-25 17:57 | 14.67647 | -17.07262 | 287 ft | 41 kts | 14° |
| 2026-04-25 17:57 | 14.67830 | -17.07160 | 283 ft | 15 kts | 69° |
| 2026-04-25 17:57 | 14.67832 | -17.07141 | 283 ft | 4 kts | 90° |
| 2026-04-25 17:58 | 14.67830 | -17.07130 | 284 ft | 2 kts | 98° |
| 2026-04-25 17:58 | 14.67806 | -17.07106 | 285 ft | 8 kts | 162° |
| 2026-04-25 17:58 | 14.67729 | -17.07100 | 288 ft | 13 kts | 178° |
| 2026-04-25 17:58 | 14.67640 | -17.07096 | 289 ft | 13 kts | 179° |
| 2026-04-25 17:59 | 14.67556 | -17.07086 | 292 ft | 12 kts | 157° |
| 2026-04-25 17:59 | 14.67535 | -17.07058 | 290 ft | 3 kts | 97° |
| 2026-04-25 17:59 | 14.67530 | -17.07025 | 291 ft | 6 kts | 103° |
| 2026-04-25 17:59 | 14.67490 | -17.06984 | 294 ft | 11 kts | 166° |
| 2026-04-25 18:00 | 14.67398 | -17.06981 | 291 ft | 15 kts | 179° |
| 2026-04-25 18:00 | 14.67293 | -17.06979 | 291 ft | 15 kts | 179° |
| 2026-04-25 18:00 | 14.67203 | -17.06963 | 296 ft | 12 kts | 144° |
| 2026-04-25 18:00 | 14.67156 | -17.06896 | 293 ft | 11 kts | 121° |
| 2026-04-25 18:01 | 14.67129 | -17.06854 | 293 ft | 3 kts | 122° |
| 2026-04-25 18:01 | 14.67128 | -17.06852 | 293 ft | 0 kts | 121° |